Time;durP1;ratioP1;P1;durP2;ratioP2;P2;SDS_P1;SDS_P2;PMS_P1;PMS_P2;Temp;Humidity;BMP_temperature;BMP_pressure;BME280_temperature;BME280_humidity;BME280_pressure;Samples;Min_cycle;Max_cycle;Signal;HPM_P1;HPM_P2
2022/09/28 00:01:48;;;;;;;2.35;0.45;;;;;;;11.50;85.23;98605.72;5051784;28;20390;-74
2022/09/28 00:04:13;;;;;;;3.30;0.53;;;;;;;11.46;85.40;98602.78;5057845;28;20414;-74
2022/09/28 00:06:38;;;;;;;1.30;0.83;;;;;;;11.42;85.64;98593.66;5051962;28;20725;-74
2022/09/28 00:09:03;;;;;;;0.70;0.30;;;;;;;11.43;85.73;98595.25;5051663;28;20400;-74
2022/09/28 00:11:29;;;;;;;0.43;0.30;;;;;;;11.44;85.57;98583.31;5051751;28;20420;-74
2022/09/28 00:14:01;;;;;;;1.40;0.50;;;;;;;11.42;85.65;98571.94;5051646;28;20408;-74
2022/09/28 00:16:32;;;;;;;0.80;0.30;;;;;;;11.45;85.66;98574.06;5050583;28;20381;-74
2022/09/28 00:18:58;;;;;;;1.42;0.43;;;;;;;11.44;85.69;98564.31;5051547;28;20389;-74
2022/09/28 00:21:26;;;;;;;1.48;0.52;;;;;;;11.42;86.07;98566.53;5056642;28;20442;-74
2022/09/28 00:24:11;;;;;;;2.33;0.52;;;;;;;11.40;86.61;98568.72;5050053;28;20401;-74
2022/09/28 00:26:39;;;;;;;1.50;0.70;;;;;;;11.39;86.93;98561.69;5038313;28;20908;-73
2022/09/28 00:29:06;;;;;;;2.00;0.93;;;;;;;11.34;87.34;98554.44;5051468;28;20394;-74
2022/09/28 00:31:32;;;;;;;3.10;0.57;;;;;;;11.34;87.43;98546.31;5051419;28;20421;-74
2022/09/28 00:33:59;;;;;;;2.17;0.50;;;;;;;11.28;88.11;98533.13;5051315;28;20451;-74
2022/09/28 00:36:27;;;;;;;2.30;0.50;;;;;;;11.27;88.59;98539.63;5037994;28;20429;-74
2022/09/28 00:38:55;;;;;;;1.00;0.67;;;;;;;11.31;88.59;98554.22;5053215;28;20397;-74
2022/09/28 00:41:20;;;;;;;2.10;0.55;;;;;;;11.28;88.75;98536.66;5051342;28;20436;-74
2022/09/28 00:43:45;;;;;;;2.07;0.63;;;;;;;11.25;89.41;98531.81;5054407;28;20873;-74
2022/09/28 00:46:20;;;;;;;3.30;0.95;;;;;;;11.31;89.72;98537.94;5054272;28;20401;-74
2022/09/28 00:48:55;;;;;;;3.10;0.80;;;;;;;11.32;89.81;98523.31;5055352;28;20472;-74
2022/09/28 00:51:23;;;;;;;7.28;0.90;;;;;;;11.33;89.87;98519.47;5055344;28;20409;-74
2022/09/28 00:53:49;;;;;;;3.42;0.70;;;;;;;11.31;89.90;98518.97;5052758;28;20823;-74
2022/09/28 00:56:20;;;;;;;2.10;0.60;;;;;;;11.29;90.49;98513.06;5063849;28;20393;-74
2022/09/28 00:58:49;;;;;;;3.70;1.00;;;;;;;11.35;90.46;98506.44;5055146;28;20396;-74
2022/09/28 01:01:15;;;;;;;1.97;0.87;;;;;;;11.37;90.11;98496.91;5054987;28;20420;-73
2022/09/28 01:03:44;;;;;;;3.60;0.90;;;;;;;11.30;90.54;98485.63;5054907;28;20413;-74
2022/09/28 01:06:13;;;;;;;3.10;0.98;;;;;;;11.30;90.99;98501.06;5055145;28;20397;-74
2022/09/28 01:08:40;;;;;;;3.08;0.77;;;;;;;11.27;91.25;98485.41;5054955;28;20798;-73
2022/09/28 01:11:05;;;;;;;1.77;0.57;;;;;;;11.33;91.29;98470.66;5054917;28;20402;-74
2022/09/28 01:13:31;;;;;;;2.60;0.80;;;;;;;11.32;91.41;98469.06;5055134;28;20396;-74
2022/09/28 01:16:34;;;;;;;;;;;;;;;;;;;;;
2022/09/28 01:19:32;;;;;;;4.55;0.80;;;;;;;11.28;91.65;98466.16;5054585;28;20401;-74
2022/09/28 01:22:20;;;;;;;3.65;0.90;;;;;;;11.26;92.23;98464.84;5043847;28;20400;-74
2022/09/28 01:24:50;;;;;;;2.60;0.80;;;;;;;11.25;92.46;98460.50;5054618;28;20736;-74
2022/09/28 01:27:28;;;;;;;5.40;0.90;;;;;;;11.30;92.62;98452.28;5052496;28;20483;-74
2022/09/28 01:30:03;;;;;;;3.17;1.00;;;;;;;11.37;92.09;98439.13;5054824;28;20386;-74
2022/09/28 01:32:54;;;;;;;6.70;1.20;;;;;;;11.37;91.95;98437.22;5054637;28;20393;-74
2022/09/28 01:35:26;;;;;;;6.18;1.20;;;;;;;11.31;92.35;98454.69;5054024;28;20387;-73
2022/09/28 01:37:59;;;;;;;3.60;1.25;;;;;;;11.35;92.55;98433.22;5054565;28;20425;-74
2022/09/28 01:40:27;;;;;;;7.63;1.15;;;;;;;11.35;92.19;98439.44;5054326;28;20539;-74
2022/09/28 01:43:01;;;;;;;4.53;1.15;;;;;;;11.34;92.68;98442.44;5054266;28;20868;-74
2022/09/28 01:45:32;;;;;;;6.00;1.50;;;;;;;11.34;92.94;98443.25;5054219;28;20402;-73
2022/09/28 01:48:02;;;;;;;7.43;1.77;;;;;;;11.35;92.91;98431.31;5061667;28;20385;-73
2022/09/28 01:50:29;;;;;;;6.10;1.35;;;;;;;11.37;93.32;98423.66;5054065;28;20393;-74
2022/09/28 01:53:03;;;;;;;10.00;1.63;;;;;;;11.38;93.08;98435.31;5054188;28;20397;-74
2022/09/28 01:55:38;;;;;;;9.50;1.73;;;;;;;11.39;93.40;98426.88;5053493;28;20389;-74
2022/09/28 01:58:12;;;;;;;5.03;1.10;;;;;;;11.40;93.28;98441.25;5054136;28;20390;-74
2022/09/28 02:00:41;;;;;;;6.28;1.20;;;;;;;11.35;93.86;98425.06;5052795;28;20767;-74
2022/09/28 02:03:15;;;;;;;8.93;2.30;;;;;;;11.36;93.89;98442.97;5054002;28;20453;-74
2022/09/28 02:05:47;;;;;;;5.47;1.70;;;;;;;11.35;94.15;98449.50;5036063;28;20397;-74
2022/09/28 02:08:33;;;;;;;7.72;1.60;;;;;;;11.38;94.24;98440.75;5036081;28;20529;-74
2022/09/28 02:11:13;;;;;;;2.67;0.93;;;;;;;11.39;94.17;98448.56;5058410;28;20396;-75
2022/09/28 02:13:43;;;;;;;29.95;1.88;;;;;;;11.20;94.56;98426.16;5060222;28;20400;-75
2022/09/28 02:16:37;;;;;;;9.95;1.40;;;;;;;11.06;95.84;98425.31;5056868;28;20458;-76
2022/09/28 02:19:05;;;;;;;1.90;0.68;;;;;;;11.00;96.70;98431.91;5045843;28;20436;-76
2022/09/28 02:21:39;;;;;;;3.10;0.38;;;;;;;10.98;97.23;98433.31;5049531;28;20432;-74
2022/09/28 02:24:33;;;;;;;1.77;0.28;;;;;;;10.93;97.75;98432.28;5048097;28;20410;-74
2022/09/28 02:27:05;;;;;;;2.38;0.40;;;;;;;10.96;97.94;98433.63;5042847;28;20959;-74
2022/09/28 02:29:31;;;;;;;0.75;0.20;;;;;;;10.98;98.17;98431.41;5053478;28;20474;-74
2022/09/28 02:31:56;;;;;;;1.08;0.40;;;;;;;11.00;98.27;98428.41;5035649;28;20390;-74
2022/09/28 02:34:21;;;;;;;3.60;0.60;;;;;;;11.00;98.42;98428.41;5053270;28;20378;-74
2022/09/28 02:36:47;;;;;;;4.57;0.70;;;;;;;11.05;98.61;98431.84;5053124;28;20436;-74
2022/09/28 02:39:14;;;;;;;2.17;0.60;;;;;;;11.08;98.19;98425.00;5052769;28;20394;-74
2022/09/28 02:42:10;;;;;;;3.88;0.80;;;;;;;11.10;98.53;98428.25;5053224;28;20409;-74
2022/09/28 02:44:44;;;;;;;1.70;0.60;;;;;;;11.07;98.68;98426.91;5039517;28;20402;-74
2022/09/28 02:47:36;;;;;;;3.95;0.60;;;;;;;11.03;98.62;98417.75;5056583;28;20415;-74
2022/09/28 02:50:07;;;;;;;2.25;0.40;;;;;;;11.07;98.54;98420.69;5056788;28;20424;-74
2022/09/28 02:53:00;;;;;;;4.00;0.80;;;;;;;11.05;98.34;98422.91;5060293;28;20398;-74
2022/09/28 02:55:50;;;;;;;2.15;0.38;;;;;;;11.04;98.36;98416.66;5052459;28;20496;-74
2022/09/28 02:58:46;;;;;;;3.03;0.50;;;;;;;11.04;98.05;98418.56;5053202;28;20405;-74
2022/09/28 03:01:30;;;;;;;3.80;0.60;;;;;;;11.04;98.28;98422.09;5052458;28;20421;-74
2022/09/28 03:04:21;;;;;;;3.20;0.65;;;;;;;10.99;98.55;98429.50;5054179;28;20776;-74
2022/09/28 03:07:00;;;;;;;1.92;0.50;;;;;;;11.00;98.91;98420.28;5026321;28;20452;-74
2022/09/28 03:09:52;;;;;;;3.55;0.60;;;;;;;11.00;98.56;98420.28;5051859;28;20440;-74
2022/09/28 03:12:19;;;;;;;2.85;0.68;;;;;;;11.02;98.66;98418.06;5051566;28;20425;-74
2022/09/28 03:14:44;;;;;;;2.13;0.50;;;;;;;11.04;98.66;98430.22;5052091;28;20451;-74
2022/09/28 03:17:10;;;;;;;5.97;1.07;;;;;;;11.01;98.67;98433.53;5053884;28;20776;-74
2022/09/28 03:19:35;;;;;;;3.20;0.70;;;;;;;11.00;98.93;98425.72;5050360;28;20409;-74
2022/09/28 03:22:01;;;;;;;5.20;0.80;;;;;;;11.01;98.92;98427.28;5049357;28;20409;-74
2022/09/28 03:24:26;;;;;;;2.47;0.50;;;;;;;11.02;99.01;98426.19;5051205;28;20413;-74
2022/09/28 03:26:52;;;;;;;4.77;0.60;;;;;;;11.00;98.90;98423.78;5051728;28;20764;-74
2022/09/28 03:29:19;;;;;;;2.60;0.50;;;;;;;11.00;98.84;98421.06;5051311;28;20411;-74
2022/09/28 03:31:44;;;;;;;5.03;0.88;;;;;;;11.01;98.83;98428.09;5054332;28;20437;-74
2022/09/28 03:34:09;;;;;;;3.42;0.93;;;;;;;11.00;99.03;98425.72;5052010;28;20907;-74
2022/09/28 03:36:35;;;;;;;5.70;0.90;;;;;;;10.99;98.78;98424.91;5053775;28;20431;-74
2022/09/28 03:39:00;;;;;;;3.70;0.70;;;;;;;10.99;98.88;98422.19;5051573;28;20397;-74
2022/09/28 03:41:29;;;;;;;5.83;0.90;;;;;;;11.09;98.86;98413.06;5059884;28;21057;-74
2022/09/28 03:43:54;;;;;;;4.93;0.90;;;;;;;11.13;98.38;98422.22;5063047;28;20910;-74
2022/09/28 03:46:19;;;;;;;2.33;0.70;;;;;;;11.16;97.79;98419.72;5063493;28;20411;-74
2022/09/28 03:48:45;;;;;;;3.50;0.97;;;;;;;11.17;97.73;98418.59;5058524;28;20413;-74
2022/09/28 03:51:11;;;;;;;2.63;1.50;;;;;;;11.18;97.78;98414.00;5057402;28;20420;-75
2022/09/28 03:53:36;;;;;;;7.70;2.92;;;;;;;11.16;97.53;98414.31;5059590;28;20442;-74
2022/09/28 03:56:07;;;;;;;5.27;1.50;;;;;;;11.19;97.70;98413.72;5055687;28;20428;-74
2022/09/28 03:58:33;;;;;;;4.73;1.37;;;;;;;11.20;97.38;98409.06;5051545;28;20516;-73
2022/09/28 04:01:04;;;;;;;6.07;1.43;;;;;;;11.16;97.13;98408.88;5059451;28;20416;-74
2022/09/28 04:03:30;;;;;;;4.83;1.80;;;;;;;11.11;97.34;98408.97;5049636;28;20475;-74
2022/09/28 04:05:56;;;;;;;4.70;2.10;;;;;;;11.10;97.94;98414.69;5051939;28;20405;-74
2022/09/28 04:08:21;;;;;;;4.72;0.82;;;;;;;11.14;98.14;98410.25;5051649;28;20415;-74
2022/09/28 04:10:47;;;;;;;5.70;1.30;;;;;;;11.16;97.96;98417.03;5051351;28;20408;-74
2022/09/28 04:13:12;;;;;;;2.53;0.73;;;;;;;11.16;97.72;98424.34;5051467;28;20468;-74
2022/09/28 04:15:37;;;;;;;5.33;1.60;;;;;;;11.15;97.68;98428.97;5061514;28;20440;-74
2022/09/28 04:18:04;;;;;;;2.85;0.75;;;;;;;11.17;97.73;98425.94;5051885;28;20793;-74
2022/09/28 04:20:29;;;;;;;36.97;3.17;;;;;;;11.15;97.44;98431.66;5051839;28;20457;-74
2022/09/28 04:22:56;;;;;;;4.00;1.10;;;;;;;11.12;97.75;98426.84;5050274;28;20436;-74
2022/09/28 04:25:22;;;;;;;2.13;0.60;;;;;;;11.13;97.76;98436.56;5051518;28;20401;-74
2022/09/28 04:30:32;;;;;;;2.13;0.67;;;;;;;11.17;97.33;98429.44;5050262;28;20554;-74
2022/09/28 04:32:57;;;;;;;3.17;0.90;;;;;;;11.16;97.01;98436.00;5055202;28;20494;-74
2022/09/28 04:35:22;;;;;;;4.20;0.93;;;;;;;11.13;97.18;98444.69;5056523;28;20397;-74
2022/09/28 04:37:47;;;;;;;6.87;2.30;;;;;;;11.10;97.38;98433.66;5031217;28;20471;-74
2022/09/28 04:40:13;;;;;;;3.37;1.50;;;;;;;11.11;97.90;98436.06;5051889;28;20888;-74
2022/09/28 04:42:38;;;;;;;5.13;2.43;;;;;;;11.14;97.84;98438.19;5034069;28;20494;-74
2022/09/28 04:45:04;;;;;;;6.20;2.97;;;;;;;11.16;97.82;98437.91;5051283;28;20472;-74
2022/09/28 04:47:29;;;;;;;4.57;1.60;;;;;;;11.09;98.01;98432.84;5051077;28;20458;-74
2022/09/28 04:49:54;;;;;;;2.95;0.85;;;;;;;11.11;98.03;98436.06;5051133;28;20393;-74
2022/09/28 04:52:20;;;;;;;5.37;1.80;;;;;;;11.12;97.85;98439.59;5034520;28;20389;-74
2022/09/28 04:54:47;;;;;;;10.23;3.60;;;;;;;11.13;97.78;98433.06;5052485;28;20915;-74
2022/09/28 04:57:13;;;;;;;11.07;2.95;;;;;;;11.14;97.82;98440.09;5033814;28;20463;-75
2022/09/28 04:59:38;;;;;;;19.97;4.50;;;;;;;11.13;97.80;98438.50;5045366;28;20765;-74
2022/09/28 05:02:03;;;;;;;20.87;4.70;;;;;;;11.09;98.03;98432.84;5050111;28;20500;-74
2022/09/28 05:04:31;;;;;;;8.17;2.23;;;;;;;11.10;98.24;98437.16;5029597;28;20824;-74
2022/09/28 05:06:57;;;;;;;6.30;1.50;;;;;;;11.12;97.99;98434.97;5031005;28;20399;-74
2022/09/28 05:09:22;;;;;;;6.88;1.33;;;;;;;11.15;97.82;98449.84;5031485;28;20789;-74
2022/09/28 05:11:49;;;;;;;10.20;2.80;;;;;;;11.11;97.59;98449.63;5030407;28;20966;-74
2022/09/28 05:14:15;;;;;;;14.13;3.53;;;;;;;11.08;97.97;98457.53;5030436;28;20762;-74
2022/09/28 05:16:40;;;;;;;16.52;4.10;;;;;;;11.05;98.04;98460.84;5030769;28;20403;-74
2022/09/28 05:19:05;;;;;;;10.90;3.10;;;;;;;11.05;98.58;98450.81;5031218;28;20811;-74
2022/09/28 05:21:31;;;;;;;7.93;1.63;;;;;;;11.11;98.37;98457.75;5030333;28;20879;-74
2022/09/28 05:23:57;;;;;;;6.23;3.40;;;;;;;11.14;97.57;98457.16;5029801;28;20403;-74
2022/09/28 05:26:22;;;;;;;2.47;1.10;;;;;;;11.14;97.68;98465.28;5030915;28;20398;-74
2022/09/28 05:28:47;;;;;;;5.63;1.80;;;;;;;11.17;97.12;98463.88;5029898;28;20742;-74
2022/09/28 05:31:13;;;;;;;3.47;1.67;;;;;;;11.17;96.80;98470.13;5033725;28;20407;-74
2022/09/28 05:33:38;;;;;;;6.57;1.67;;;;;;;11.25;96.52;98474.06;5034543;28;20407;-74
2022/09/28 05:36:04;;;;;;;6.07;2.03;;;;;;;11.24;96.46;98478.69;5034446;28;20395;-74
2022/09/28 05:38:29;;;;;;;5.10;1.50;;;;;;;11.25;96.47;98479.50;5034588;28;20402;-74
2022/09/28 05:40:55;;;;;;;11.83;3.70;;;;;;;11.24;96.46;98475.16;5048536;28;20821;-74
2022/09/28 05:43:20;;;;;;;7.85;2.38;;;;;;;11.23;96.64;98485.19;5034888;28;20401;-74
2022/09/28 05:45:45;;;;;;;11.47;2.83;;;;;;;11.24;96.91;98486.81;5042990;28;20399;-74
2022/09/28 05:48:11;;;;;;;7.53;3.27;;;;;;;11.27;96.87;98483.50;5033183;28;20441;-74
2022/09/28 05:50:36;;;;;;;13.23;3.53;;;;;;;11.24;96.62;98480.59;5033509;28;20399;-74
2022/09/28 05:53:04;;;;;;;10.07;3.08;;;;;;;11.28;96.86;98478.91;5034338;28;20390;-74
2022/09/28 05:55:30;;;;;;;8.55;2.92;;;;;;;11.31;96.33;98470.97;5034245;28;20882;-74
2022/09/28 05:57:59;;;;;;;5.97;2.35;;;;;;;11.32;96.37;98474.50;5034146;28;20474;-74
2022/09/28 06:00:26;;;;;;;6.30;2.05;;;;;;;11.20;96.99;98477.66;5032374;28;20423;-74
2022/09/28 06:03:17;;;;;;;8.02;2.22;;;;;;;11.15;96.88;98476.94;5038455;28;20484;-74
2022/09/28 06:05:44;;;;;;;11.95;2.70;;;;;;;11.24;96.34;98488.72;5051808;28;20756;-74
2022/09/28 06:08:10;;;;;;;7.00;2.50;;;;;;;11.19;96.11;98489.63;5053835;28;20388;-74
2022/09/28 06:10:36;;;;;;;12.13;2.75;;;;;;;11.17;96.62;98494.50;5053217;28;20409;-74
2022/09/28 06:13:01;;;;;;;10.03;2.43;;;;;;;11.24;96.72;98492.22;5053832;28;20781;-74
2022/09/28 06:15:29;;;;;;;7.57;1.97;;;;;;;11.28;96.35;98498.69;5035860;28;20421;-74
2022/09/28 06:18:03;;;;;;;5.38;2.33;;;;;;;11.31;96.42;98500.78;5052263;28;20898;-74
2022/09/28 06:20:31;;;;;;;6.88;2.78;;;;;;;11.19;97.22;98491.53;5052996;28;20424;-74
2022/09/28 06:22:57;;;;;;;7.18;1.98;;;;;;;11.23;97.07;98493.31;5053481;28;20385;-74
2022/09/28 06:25:23;;;;;;;4.60;2.20;;;;;;;11.23;97.08;98492.53;5053463;28;20385;-74
2022/09/28 06:27:56;;;;;;;7.45;2.85;;;;;;;11.23;97.17;98496.03;5053440;28;20868;-74
2022/09/28 06:30:25;;;;;;;12.15;4.57;;;;;;;11.26;97.17;98498.16;5052610;28;20508;-74
2022/09/28 06:32:53;;;;;;;17.02;6.45;;;;;;;11.27;97.15;98501.69;5048949;28;20756;-74
2022/09/28 06:35:20;;;;;;;10.15;3.20;;;;;;;11.18;97.31;98508.88;5051266;28;20953;-74
2022/09/28 06:37:45;;;;;;;9.70;3.83;;;;;;;11.17;97.50;98504.56;5035235;28;20398;-74
2022/09/28 06:40:11;;;;;;;6.77;2.40;;;;;;;11.16;97.14;98506.47;5051127;28;20535;-74
2022/09/28 06:42:36;;;;;;;11.87;3.73;;;;;;;11.19;97.04;98502.38;5047685;28;20564;-74
2022/09/28 06:45:01;;;;;;;8.53;3.63;;;;;;;11.24;96.97;98510.41;5052149;28;20447;-74
2022/09/28 06:47:27;;;;;;;9.43;3.50;;;;;;;11.27;96.70;98510.63;5053036;28;20397;-74
2022/09/28 06:49:54;;;;;;;7.03;2.40;;;;;;;11.30;96.71;98514.63;5053124;28;20788;-74
2022/09/28 06:52:20;;;;;;;4.22;2.22;;;;;;;11.32;96.49;98515.97;5051842;28;20410;-74
2022/09/28 06:54:45;;;;;;;5.80;2.03;;;;;;;11.28;96.29;98520.38;5052458;28;20427;-74
2022/09/28 06:57:10;;;;;;;11.35;3.35;;;;;;;11.28;96.33;98522.28;5052392;28;20397;-73
2022/09/28 06:59:35;;;;;;;9.03;2.80;;;;;;;11.29;96.51;98526.59;5049513;28;20405;-74
2022/09/28 07:02:01;;;;;;;7.80;2.43;;;;;;;11.28;96.52;98525.78;5052255;28;20429;-74
2022/09/28 07:04:26;;;;;;;10.37;3.43;;;;;;;11.28;96.48;98536.66;5052804;28;20888;-73
2022/09/28 07:06:52;;;;;;;15.30;4.33;;;;;;;11.39;96.51;98538.06;5052701;28;20385;-73
2022/09/28 07:09:17;;;;;;;9.20;3.35;;;;;;;12.16;94.78;98546.50;5051225;28;20752;-74
2022/09/28 07:11:43;;;;;;;10.77;2.80;;;;;;;12.66;90.88;98547.38;5051437;28;20497;-74
2022/09/28 07:14:09;;;;;;;8.10;2.80;;;;;;;12.39;90.95;98552.81;5051439;28;20389;-74
2022/09/28 07:16:36;;;;;;;4.70;2.60;;;;;;;12.00;91.96;98552.50;5034859;28;20390;-74
2022/09/28 07:19:01;;;;;;;10.65;2.85;;;;;;;11.77;93.49;98562.44;5052471;28;20385;-74
2022/09/28 07:21:26;;;;;;;8.57;3.10;;;;;;;11.63;94.17;98572.41;5049440;28;20467;-74
2022/09/28 07:23:53;;;;;;;6.70;3.67;;;;;;;11.52;94.83;98569.06;5052385;28;20392;-74
2022/09/28 07:26:18;;;;;;;8.00;2.78;;;;;;;11.48;95.17;98573.47;5060768;28;20427;-74
2022/09/28 07:42:11;;;;;;;13.17;4.33;;;;;;;11.61;94.69;98599.84;5044242;28;20491;-74
2022/09/28 07:47:58;;;;;;;7.50;1.85;;;;;;;11.71;94.36;98609.75;5036942;28;20397;-74
2022/09/28 07:50:24;;;;;;;8.30;3.20;;;;;;;11.71;93.78;98607.84;5047099;28;20393;-74
2022/09/28 07:52:49;;;;;;;9.35;3.30;;;;;;;11.71;94.13;98607.84;5050271;28;20428;-74
2022/09/28 07:55:14;;;;;;;9.23;3.60;;;;;;;11.77;94.15;98608.56;5050764;28;20397;-74
2022/09/28 07:57:40;;;;;;;6.10;2.42;;;;;;;11.80;94.14;98610.69;5050450;28;20450;-74
2022/09/28 08:00:07;;;;;;;7.77;2.37;;;;;;;11.88;93.71;98610.00;5050414;28;20445;-74
2022/09/28 08:02:34;;;;;;;13.63;3.80;;;;;;;11.95;93.16;98618.56;5051379;28;20431;-74
2022/09/28 08:05:00;;;;;;;11.98;3.90;;;;;;;12.01;92.76;98620.09;5051156;28;20402;-74
2022/09/28 08:07:25;;;;;;;8.85;3.53;;;;;;;12.04;92.93;98622.22;5033878;28;20478;-74
2022/09/28 08:09:51;;;;;;;12.57;3.67;;;;;;;12.05;93.26;98623.03;5050491;28;20955;-73
2022/09/28 08:12:18;;;;;;;6.43;2.60;;;;;;;12.10;93.33;98623.72;5050310;28;20441;-74
2022/09/28 08:14:44;;;;;;;6.33;2.63;;;;;;;12.16;93.44;98633.38;5037489;28;20402;-74
2022/09/28 08:17:10;;;;;;;7.43;3.38;;;;;;;12.24;93.01;98634.63;5056760;28;20411;-74
2022/09/28 08:22:19;;;;;;;6.45;2.40;;;;;;;12.29;93.10;98639.94;5047857;28;20384;-74
2022/09/28 08:24:46;;;;;;;10.47;3.30;;;;;;;12.28;92.86;98638.34;5049549;28;20864;-74
2022/09/28 08:27:13;;;;;;;6.90;2.78;;;;;;;12.30;93.06;98645.09;5047680;28;20416;-74
2022/09/28 08:29:38;;;;;;;6.00;2.33;;;;;;;12.38;93.05;98638.16;5050812;28;20390;-74
2022/09/28 08:32:06;;;;;;;8.30;2.67;;;;;;;12.45;92.45;98652.94;5049130;28;20420;-73
2022/09/28 08:34:35;;;;;;;5.75;2.40;;;;;;;12.40;92.83;98649.53;5046749;28;20452;-74
2022/09/28 08:37:00;;;;;;;7.90;2.70;;;;;;;12.41;92.46;98653.84;5051328;28;20405;-74
2022/09/28 08:39:26;;;;;;;8.10;3.40;;;;;;;12.43;92.43;98659.78;5051598;28;20757;-74
2022/09/28 08:42:05;;;;;;;6.63;2.63;;;;;;;12.46;92.44;98661.91;5049604;28;20499;-74
2022/09/28 08:44:46;;;;;;;9.13;3.47;;;;;;;12.49;91.80;98656.66;5051367;28;20845;-74
2022/09/28 08:50:30;;;;;;;7.88;2.40;;;;;;;12.55;91.16;98665.53;5050150;28;20412;-74
2022/09/28 08:53:03;;;;;;;7.78;3.08;;;;;;;12.56;90.55;98667.13;5059320;28;20451;-74
2022/09/28 08:55:36;;;;;;;7.53;3.03;;;;;;;12.60;90.63;98664.63;5050402;28;20918;-74
2022/09/28 08:58:12;;;;;;;6.93;2.70;;;;;;;12.65;90.12;98667.22;5049663;28;20479;-74
2022/09/28 09:00:44;;;;;;;9.70;3.38;;;;;;;12.63;90.10;98672.19;5049546;28;20412;-74
2022/09/28 09:03:13;;;;;;;7.68;3.17;;;;;;;12.71;89.96;98666.06;5049717;28;20907;-74
2022/09/28 09:06:19;;;;;;;9.48;2.75;;;;;;;12.73;89.58;98683.66;5053053;28;20431;-74
2022/09/28 09:09:02;;;;;;;5.83;2.00;;;;;;;12.76;89.87;98680.34;5034370;28;20409;-74
2022/09/28 09:11:51;;;;;;;6.85;2.22;;;;;;;12.84;89.72;98679.63;5052081;28;20403;-74
2022/09/28 09:14:29;;;;;;;4.20;1.98;;;;;;;12.90;89.08;98689.31;5051439;28;20429;-74
2022/09/28 09:17:22;;;;;;;7.78;2.20;;;;;;;12.88;88.55;98693.41;5054660;28;20397;-74
2022/09/28 09:20:05;;;;;;;6.15;2.50;;;;;;;12.94;88.74;98692.22;5054385;28;20400;-74
2022/09/28 09:22:36;;;;;;;7.75;2.35;;;;;;;13.05;87.59;98692.81;5048538;28;20492;-74
2022/09/28 09:25:16;;;;;;;6.95;1.88;;;;;;;12.99;87.84;98692.91;5054047;28;20730;-73
2022/09/28 09:27:55;;;;;;;5.28;2.72;;;;;;;12.93;87.82;98693.31;5050776;28;20526;-74
2022/09/28 09:30:25;;;;;;;5.50;1.87;;;;;;;13.06;88.02;98691.69;5054403;28;20459;-74
2022/09/28 09:33:04;;;;;;;10.40;2.20;;;;;;;13.15;87.41;98698.88;5054073;28;20903;-74
2022/09/28 09:35:45;;;;;;;6.40;2.08;;;;;;;13.31;86.01;98692.00;5054239;28;20398;-73
2022/09/28 09:38:26;;;;;;;6.70;1.90;;;;;;;13.34;85.20;98698.72;5045137;28;20416;-74
2022/09/28 09:41:10;;;;;;;4.77;1.97;;;;;;;13.30;85.07;98697.75;5053708;28;20426;-74
2022/09/28 09:44:04;;;;;;;5.07;2.20;;;;;;;13.35;85.49;98706.59;5060467;28;20451;-73
2022/09/28 09:46:48;;;;;;;5.28;1.92;;;;;;;13.29;84.92;98701.56;5049156;28;20784;-73
2022/09/28 09:49:35;;;;;;;5.57;1.83;;;;;;;13.39;85.21;98707.59;5053453;28;20416;-73
2022/09/28 09:52:00;;;;;;;4.30;1.40;;;;;;;13.49;83.01;98707.38;5052055;28;20772;-74
2022/09/28 09:54:30;;;;;;;6.80;1.90;;;;;;;13.64;82.57;98710.84;5035955;28;20394;-74
2022/09/28 09:57:02;;;;;;;6.43;2.00;;;;;;;13.64;82.69;98708.94;5038501;28;20389;-73
2022/09/28 09:59:35;;;;;;;5.90;2.15;;;;;;;13.93;81.15;98716.69;5053543;28;20406;-74
2022/09/28 10:02:21;;;;;;;6.37;1.73;;;;;;;13.70;81.14;98721.31;5053346;28;20445;-74
2022/09/28 10:04:50;;;;;;;6.18;1.60;;;;;;;14.12;80.97;98711.91;5052091;28;20412;-74
2022/09/28 10:07:48;;;;;;;8.40;2.10;;;;;;;14.59;79.04;98715.88;5053927;28;20390;-74
2022/09/28 10:10:35;;;;;;;4.35;1.90;;;;;;;14.29;79.14;98712.00;5052808;28;20405;-74
2022/09/28 10:13:02;;;;;;;3.67;2.28;;;;;;;14.13;79.32;98710.75;5053548;28;20389;-74
2022/09/28 10:15:34;;;;;;;6.75;2.30;;;;;;;14.08;78.58;98716.34;5033768;28;20983;-74
2022/09/28 10:18:05;;;;;;;4.30;1.88;;;;;;;14.09;78.20;98709.81;5051428;28;20413;-73
2022/09/28 10:20:36;;;;;;;8.75;2.22;;;;;;;15.11;75.84;98707.91;5052406;28;20401;-73
2022/09/28 10:23:04;;;;;;;6.13;2.42;;;;;;;15.24;73.28;98709.72;5053033;28;20428;-74
2022/09/28 10:25:32;;;;;;;6.07;2.10;;;;;;;14.72;73.93;98716.94;5053788;28;20450;-73
2022/09/28 10:28:00;;;;;;;5.82;2.38;;;;;;;14.37;74.70;98718.66;5052738;28;20460;-74
2022/09/28 10:30:25;;;;;;;6.10;2.25;;;;;;;14.49;75.33;98707.97;5051863;28;20439;-74
2022/09/28 10:32:54;;;;;;;6.47;2.20;;;;;;;15.09;74.35;98716.41;5052081;28;20414;-73
2022/09/28 10:35:22;;;;;;;8.13;2.57;;;;;;;15.33;71.82;98705.88;5052434;28;20420;-74
2022/09/28 10:38:06;;;;;;;6.45;2.03;;;;;;;16.08;70.42;98700.00;5053266;28;20390;-74
2022/09/28 10:40:43;;;;;;;4.88;1.50;;;;;;;16.91;66.17;98703.19;5053433;28;20417;-74
2022/09/28 10:43:20;;;;;;;5.07;1.63;;;;;;;17.79;61.97;98714.09;5049695;28;20434;-73
2022/09/28 10:45:45;;;;;;;6.07;1.97;;;;;;;17.22;62.49;98704.81;5052311;28;21059;-74
2022/09/28 10:48:19;;;;;;;7.27;1.80;;;;;;;16.90;64.35;98706.22;5051973;28;20401;-74
2022/09/28 11:00:51;;;;;;;5.15;2.30;;;;;;;18.55;58.17;98703.59;5050480;28;20424;-74
2022/09/28 11:06:40;;;;;;;4.32;1.70;;;;;;;18.51;57.69;98701.84;4434787;28;20455;-74
2022/09/28 11:09:41;;;;;;;5.35;1.58;;;;;;;18.50;56.70;98709.31;5052832;28;20401;-73
2022/09/28 11:12:15;;;;;;;4.15;1.63;;;;;;;18.90;57.30;98698.47;5018766;28;20436;-74
2022/09/28 11:14:42;;;;;;;5.32;1.35;;;;;;;19.64;53.92;98700.88;5049515;28;20405;-75
2022/09/28 11:17:16;;;;;;;4.40;1.30;;;;;;;20.16;51.75;98694.50;5049405;28;20405;-74
2022/09/28 11:19:42;;;;;;;5.60;2.20;;;;;;;19.97;52.14;98699.84;5049460;28;20496;-74
2022/09/28 11:22:23;;;;;;;4.47;1.73;;;;;;;19.86;52.62;98693.25;5049147;28;20409;-74
2022/09/28 11:24:50;;;;;;;6.00;1.58;;;;;;;19.23;54.21;98701.13;5062279;28;22318;-74
2022/09/28 11:27:23;;;;;;;5.50;1.40;;;;;;;18.67;55.73;98700.84;5050679;28;20488;-74
2022/09/28 11:29:56;;;;;;;2.47;1.00;;;;;;;18.86;55.34;98697.59;5051626;28;20405;-74
2022/09/28 11:32:25;;;;;;;4.22;1.30;;;;;;;19.72;53.52;98692.84;5052262;28;20444;-74
2022/09/28 11:34:51;;;;;;;2.78;0.90;;;;;;;19.55;52.09;98693.91;5052126;28;20392;-74
2022/09/28 11:37:55;;;;;;;2.60;1.25;;;;;;;19.37;52.68;98692.53;5052113;28;20398;-74
2022/09/28 11:40:52;;;;;;;3.35;1.63;;;;;;;19.57;52.91;98692.41;5042021;28;20425;-74
2022/09/28 11:43:33;;;;;;;4.28;1.13;;;;;;;19.41;51.50;98691.53;5037701;28;20451;-74
2022/09/28 11:46:14;;;;;;;3.92;1.15;;;;;;;19.38;52.29;98692.19;5050614;28;20393;-74
2022/09/28 11:48:53;;;;;;;3.25;1.27;;;;;;;18.91;52.54;98693.78;5049856;28;20424;-74
2022/09/28 11:51:30;;;;;;;3.33;1.10;;;;;;;18.47;53.94;98687.19;5065007;28;20397;-74
2022/09/28 11:54:13;;;;;;;5.65;1.95;;;;;;;17.83;54.74;98692.31;5052971;28;20488;-74
2022/09/28 11:56:42;;;;;;;3.45;0.95;;;;;;;17.33;56.55;98690.38;5045083;28;20916;-74
2022/09/28 11:59:23;;;;;;;4.05;1.15;;;;;;;17.41;57.02;98691.47;5032644;28;20405;-74
2022/09/28 12:01:55;;;;;;;2.70;1.37;;;;;;;17.35;56.66;98690.06;5051001;28;20420;-74
2022/09/28 12:04:27;;;;;;;3.08;1.65;;;;;;;17.40;56.47;98689.88;5055885;28;20395;-74
2022/09/28 12:07:02;;;;;;;4.13;1.40;;;;;;;17.33;55.81;98684.09;5051525;28;20420;-74
2022/09/28 12:09:35;;;;;;;2.30;1.23;;;;;;;17.09;56.50;98688.25;5050297;28;20425;-74
2022/09/28 12:12:06;;;;;;;5.35;1.45;;;;;;;17.09;57.63;98690.22;5051141;28;20896;-74
2022/09/28 12:14:37;;;;;;;1.73;0.98;;;;;;;17.22;57.74;98680.97;5053403;28;20791;-74
2022/09/28 12:17:16;;;;;;;5.00;1.10;;;;;;;18.23;55.49;98684.38;5051023;28;20896;-72
2022/09/28 12:30:04;;;;;;;6.88;1.60;;;;;;;19.11;50.22;98668.97;5047606;28;20416;-74
2022/09/28 12:36:06;;;;;;;2.58;0.80;;;;;;;18.79;50.66;98671.84;5046066;28;20451;-73
2022/09/28 12:38:41;;;;;;;1.73;0.50;;;;;;;18.64;51.29;98674.09;5050161;28;20405;-73
2022/09/28 12:41:25;;;;;;;1.77;0.60;;;;;;;18.02;51.19;98677.00;5054769;28;20468;-73
2022/09/28 12:44:06;;;;;;;3.33;0.60;;;;;;;17.73;52.17;98671.59;5048914;28;20496;-73
2022/09/28 12:46:50;;;;;;;2.97;0.77;;;;;;;17.41;52.92;98673.13;5055114;28;20488;-73